Latest Weather Observations for Kanagulk

IDV60801

Issued at 9:05 pm EST Monday 1 September 2014 (issued every 30 minutes, with the page automatically refreshed every 10 minutes)

About weather observations | Map of weather stations | Latest weather observations for VIC | Other Formats
Station Details ID: 079097 Name: KANAGULK Lat: -37.12 Lon: 141.80 Height: 188.8 m
Data from the previous 72 hours. | See also: Recent months at Kanagulk
Date/Time
EST
Temp
°C
App
Temp
°C
Dew
Point
Rel
Hum
%
Delta-T
°C
Wind Press
QNH
hPa
Press
MSL
hPa
Rain
since 9 am
mm
Dir
 
Spd
km/h
Gust
km/h
Spd
kts
Gust
kts
01/09:00pm 6.9 4.6 5.8 93 0.5 WSW 7 13 4 7 1014.4 1014.5 3.8
01/08:30pm 7.5 5.3 6.1 91 0.6 SW 7 11 4 6 1014.3 1014.4 3.8
01/08:00pm 8.5 5.6 6.6 88 0.9 SSW 11 17 6 9 1014.0 1014.1 3.8
01/07:30pm 9.3 5.5 7.6 89 0.8 SSW 17 24 9 13 1013.6 1013.7 3.8
01/07:00pm 9.0 6.3 7.3 89 0.8 SW 11 15 6 8 1013.2 1013.2 3.8
01/06:30pm 9.4 6.9 6.7 83 1.3 WSW 9 19 5 10 1012.6 1012.7 3.8
01/06:00pm 10.3 6.3 6.6 78 1.8 SW 17 24 9 13 1012.2 1012.3 3.8
01/05:30pm 10.7 7.0 6.3 74 2.1 SSW 15 22 8 12 1011.6 1011.7 3.8
01/05:00pm 11.6 7.9 6.5 71 2.4 SW 15 22 8 12 1011.2 1011.3 3.8
01/04:30pm 12.7 8.2 6.1 64 3.2 SW 19 24 10 13 1010.9 1011.0 3.8
01/04:00pm 13.1 9.9 6.7 65 3.1 SW 13 28 7 15 1010.6 1010.7 3.8
01/03:30pm 12.7 10.1 7.6 71 2.5 SSW 11 17 6 9 1010.3 1010.4 3.8
01/03:00pm 11.8 8.4 7.5 75 2.1 S 15 22 8 12 1010.2 1010.3 3.8
01/02:30pm 10.8 7.3 8.6 86 1.1 SSE 17 26 9 14 1010.1 1010.2 3.8
01/02:00pm 9.7 6.7 9.2 97 0.3 SSE 15 19 8 10 1010.3 1010.4 3.8
01/01:30pm 8.4 3.1 6.9 90 0.7 SW 24 46 13 25 1010.9 1011.0 2.2
01/01:27pm 8.5 2.4 6.6 88 0.9 SW 28 46 15 25 1011.0 1011.1 2.2
01/01:21pm 10.6 4.8 8.0 84 1.3 SW 28 41 15 22 1010.6 1010.7 0.8
01/01:00pm 12.6 10.5 9.8 83 1.4 NW 11 15 6 8 1009.9 1010.0 0.4
01/12:30pm 12.3 11.1 10.4 88 1.0 NW 7 11 4 6 1010.0 1010.1 0.4
01/12:00pm 12.1 10.5 10.3 89 0.9 W 9 15 5 8 1010.1 1010.2 0.4
01/11:30am 11.7 9.4 10.3 91 0.7 WSW 13 17 7 9 1010.2 1010.3 0.4
01/11:00am 12.2 10.0 10.8 91 0.7 W 13 20 7 11 1010.3 1010.4 0.0
01/10:30am 11.9 9.9 11.6 98 0.2 W 13 20 7 11 1010.3 1010.4 0.0
01/10:00am 11.8 10.2 11.6 99 0.1 WNW 11 22 6 12 1010.1 1010.2 0.0
01/09:30am 11.7 10.5 11.5 99 0.1 WNW 9 17 5 9 1010.0 1010.2 0.0
01/09:00am 11.2 9.8 11.0 99 0.1 WNW 9 15 5 8 1009.8 1010.0 3.8
01/08:30am 10.8 8.5 10.6 99 0.1 NW 13 17 7 9 1009.8 1010.0 3.8
01/08:00am 10.6 8.3 10.4 99 0.1 NW 13 19 7 10 1009.4 1009.6 3.8
01/07:30am 10.4 8.8 10.2 99 0.1 NNW 9 15 5 8 1009.2 1009.4 3.8
01/07:00am 10.2 8.9 10.0 99 0.1 NW 7 11 4 6 1009.0 1009.2 3.8
01/06:30am 10.1 8.4 9.9 99 0.1 NW 9 15 5 8 1008.9 1009.1 3.8
01/06:00am 10.5 8.2 10.3 99 0.1 NW 13 17 7 9 1008.9 1009.1 3.2
01/05:30am 10.8 9.3 10.6 99 0.1 NW 9 15 5 8 1008.8 1009.0 2.2
01/05:00am 11.1 9.6 10.5 96 0.3 NW 9 13 5 7 1008.7 1008.9 1.2
01/04:30am 11.5 10.2 9.9 90 0.8 NW 7 13 4 7 1008.9 1009.1 0.2
01/04:00am 12.1 9.9 9.3 83 1.4 W 11 17 6 9 1008.6 1008.8 0.0
01/03:30am 12.5 10.7 8.0 74 2.2 W 7 11 4 6 1008.4 1008.6 0.0
01/03:00am 12.9 10.0 6.7 66 3.0 WSW 11 19 6 10 1008.9 1009.1 0.0
01/02:30am 13.5 10.9 4.1 53 4.3 W 7 11 4 6 1008.7 1008.9 0.0
01/02:00am 14.2 11.0 2.8 46 5.1 WNW 9 15 5 8 1008.7 1008.9 0.0
01/01:30am 14.3 11.2 1.6 42 5.6 WNW 7 17 4 9 1008.7 1008.9 0.0
01/01:00am 14.6 11.1 1.5 41 5.8 NW 9 20 5 11 1008.2 1008.4 0.0
01/12:30am 14.7 11.6 1.3 40 5.9 WNW 7 13 4 7 1008.2 1008.4 0.0
01/12:00am 15.3 11.3 0.7 37 6.4 N 11 19 6 10 1008.3 1008.5 0.0
 
Date/Time
EST
Temp
°C
App
Temp
°C
Dew
Point
Rel
Hum
%
Delta-T
°C
Wind Press
QNH
hPa
Press
MSL
hPa
Rain
since 9 am
mm
Dir
 
Spd
km/h
Gust
km/h
Spd
kts
Gust
kts
31/11:30pm 15.9 10.4 0.5 35 6.7 N 19 26 10 14 1008.5 1008.7 0.0
31/11:00pm 14.9 10.6 1.1 39 6.0 N 13 19 7 10 1008.9 1009.1 0.0
31/10:30pm 15.9 11.1 0.5 35 6.7 N 15 20 8 11 1009.4 1009.6 0.0
31/10:00pm 15.9 11.2 0.9 36 6.6 N 15 20 8 11 1009.7 1009.9 0.0
31/09:30pm 15.5 11.7 1.6 39 6.2 N 11 17 6 9 1010.2 1010.4 0.0
31/09:00pm 15.0 11.3 2.2 42 5.7 N 11 15 6 8 1010.3 1010.5 0.0
31/08:30pm 14.8 11.8 2.0 42 5.7 N 7 11 4 6 1010.5 1010.7 0.0
31/08:00pm 16.0 12.5 1.3 37 6.5 NNW 9 11 5 6 1010.8 1011.0 0.0
31/07:30pm 17.5 11.9 1.1 33 7.3 N 20 30 11 16 1010.0 1010.2 0.0
31/07:00pm 17.2 11.9 1.6 35 7.0 NNE 19 22 10 12 1009.8 1010.0 0.0
31/06:30pm 17.9 12.9 1.4 33 7.4 NNE 17 20 9 11 1010.3 1010.5 0.0
31/06:00pm 18.1 13.2 2.0 34 7.4 N 17 20 9 11 1010.6 1010.8 0.0
31/05:30pm 18.4 14.8 2.7 35 7.3 N 11 15 6 8 1011.1 1011.3 0.0
31/05:00pm 19.5 15.9 2.8 33 7.9 NNW 11 19 6 10 1011.5 1011.7 0.0
31/04:30pm 20.1 15.2 2.0 30 8.4 NW 17 28 9 15 1011.6 1011.8 0.0
31/04:00pm 20.5 15.0 0.9 27 8.9 NNW 19 32 10 17 1011.6 1011.8 0.0
31/03:30pm 21.1 16.1 1.4 27 9.1 NW 17 26 9 14 1011.7 1011.9 0.0
31/03:00pm 21.3 16.2 3.0 30 8.8 NNW 19 26 10 14 1011.9 1012.1 0.0
31/02:30pm 22.0 16.8 2.7 28 9.2 NNW 19 32 10 17 1012.2 1012.5 0.0
31/02:00pm 22.3 17.1 3.4 29 9.2 NNW 20 33 11 18 1012.5 1012.8 0.0
31/01:30pm 20.7 16.4 7.7 43 6.8 NNE 20 28 11 15 1013.0 1013.3 0.0
31/01:00pm 20.1 15.4 7.8 45 6.4 N 22 30 12 16 1013.6 1013.8 0.0
31/12:30pm 19.4 15.1 7.8 47 6.0 N 20 30 11 16 1014.4 1014.6 0.0
31/12:00pm 17.8 13.8 6.7 48 5.6 N 17 24 9 13 1014.9 1015.1 0.0
31/11:30am 17.3 12.8 6.8 50 5.3 N 20 28 11 15 1015.4 1015.6 0.0
31/11:00am 16.0 11.4 6.4 53 4.7 N 20 24 11 13 1015.8 1016.0 0.0
31/10:30am 14.8 10.8 6.6 58 4.0 NNE 17 22 9 12 1016.0 1016.2 0.0
31/10:00am 14.2 10.3 7.3 63 3.4 NNE 17 20 9 11 1016.5 1016.8 0.0
31/09:30am 12.4 8.3 6.2 66 3.0 NNE 17 22 9 12 1016.8 1017.1 0.0
31/09:00am 12.2 7.6 5.4 63 3.2 N 19 24 10 13 1016.9 1017.2 0.0
31/08:30am 11.9 7.3 5.8 66 2.9 NNE 19 26 10 14 1016.8 1017.1 0.0
31/08:00am 10.1 6.7 5.7 74 2.0 NNE 13 20 7 11 1016.9 1017.2 0.0
31/07:30am 8.8 4.4 5.0 77 1.7 NE 17 24 9 13 1016.8 1017.1 0.0
31/07:00am 8.5 4.6 5.4 81 1.4 NNE 15 20 8 11 1017.0 1017.3 0.0
31/06:30am 8.5 5.0 5.4 81 1.4 NNE 13 17 7 9 1017.1 1017.4 0.0
31/06:00am 8.9 4.6 5.3 78 1.6 NNE 17 24 9 13 1017.2 1017.5 0.0
31/05:30am 8.9 5.5 5.8 81 1.4 NNE 13 19 7 10 1017.3 1017.6 0.0
31/05:00am 8.5 5.1 5.8 83 1.2 NNE 13 15 7 8 1017.1 1017.4 0.0
31/04:30am 8.5 5.0 5.6 82 1.3 NNE 13 15 7 8 1017.1 1017.4 0.0
31/04:00am 9.4 5.3 6.3 81 1.4 NE 17 20 9 11 1017.0 1017.3 0.0
31/03:30am 8.6 5.2 5.7 82 1.3 NNE 13 17 7 9 1017.4 1017.7 0.0
31/03:00am 9.1 5.3 5.7 79 1.6 NNE 15 17 8 9 1017.7 1018.0 0.0
31/02:30am 9.9 5.3 5.7 75 1.9 NNE 19 24 10 13 1017.9 1018.2 0.0
31/02:00am 10.2 6.0 5.6 73 2.1 NNE 17 20 9 11 1018.3 1018.6 0.0
31/01:30am 10.5 6.7 5.9 73 2.1 NNE 15 19 8 10 1018.5 1018.8 0.0
31/01:00am 10.7 6.9 5.9 72 2.2 NE 15 17 8 9 1018.8 1019.0 0.0
31/12:30am 11.5 7.4 6.4 71 2.4 NNE 17 22 9 12 1019.0 1019.2 0.0
31/12:00am 11.0 7.1 6.9 76 2.0 NNE 17 20 9 11 1019.0 1019.2 0.0
 
Date/Time
EST
Temp
°C
App
Temp
°C
Dew
Point
Rel
Hum
%
Delta-T
°C
Wind Press
QNH
hPa
Press
MSL
hPa
Rain
since 9 am
mm
Dir
 
Spd
km/h
Gust
km/h
Spd
kts
Gust
kts
30/11:30pm 10.1 6.8 6.4 78 1.7 NE 13 15 7 8 1019.2 1019.4 0.0
30/11:00pm 10.1 6.9 7.0 81 1.5 NE 13 15 7 8 1019.5 1019.7 0.0
30/10:30pm 9.5 7.1 6.8 83 1.3 NE 9 9 5 5 1020.0 1020.2 0.0
30/10:00pm 8.7 6.6 6.8 88 0.9 ENE 7 9 4 5 1020.3 1020.5 0.0
30/09:30pm 8.9 6.7 6.3 84 1.2 ENE 7 11 4 6 1020.5 1020.7 0.0
30/09:00pm 10.1 8.0 6.8 80 1.6 ENE 7 9 4 5 1020.7 1020.9 0.0
30/08:30pm 11.0 10.4 7.3 78 1.8 CALM 0 0 0 0 1020.9 1021.1 0.0
30/08:00pm 11.5 9.7 7.8 78 1.8 E 7 7 4 4 1020.7 1020.9 0.0
30/07:30pm 11.7 9.9 7.0 73 2.3 E 6 7 3 4 1020.6 1020.8 0.0
30/07:00pm 12.9 11.1 7.8 71 2.5 E 7 7 4 4 1020.6 1020.8 0.0
30/06:30pm 13.6 11.7 7.6 67 3.0 E 7 9 4 5 1020.7 1020.9 0.0
30/06:00pm 15.3 13.6 8.5 64 3.5 ENE 7 9 4 5 1020.6 1020.8 0.0
30/05:30pm 17.4 16.1 9.8 61 4.0 ENE 7 11 4 6 1020.5 1020.7 0.0
30/05:00pm 18.8 16.9 9.0 53 5.2 NE 9 9 5 5 1020.6 1020.8 0.0
30/04:30pm 19.3 17.1 8.0 48 5.9 NE 9 11 5 6 1020.6 1020.8 0.0
30/04:00pm 19.7 17.7 8.7 49 5.8 NE 9 13 5 7 1020.7 1020.9 0.0
30/03:30pm 19.7 16.9 8.4 48 5.9 NE 13 17 7 9 1020.8 1021.0 0.0
30/03:00pm 19.7 16.8 8.1 47 6.0 NE 13 17 7 9 1021.2 1021.5 0.0
30/02:30pm 19.1 16.1 7.8 48 5.8 NNE 13 17 7 9 1021.5 1021.8 0.0
30/02:00pm 18.9 16.0 8.0 49 5.6 NNE 13 17 7 9 1021.9 1022.2 0.0
30/01:30pm 18.3 15.1 8.3 52 5.2 NNE 15 20 8 11 1022.3 1022.6 0.0
30/01:00pm 17.4 14.5 8.0 54 4.8 N 13 17 7 9 1022.8 1023.1 0.0
30/12:30pm 17.2 14.9 9.1 59 4.2 N 11 20 6 11 1023.4 1023.7 0.0
30/12:00pm 16.7 14.6 9.6 63 3.7 N 11 17 6 9 1023.8 1024.1 0.0
30/11:30am 15.8 12.8 9.2 65 3.4 NNE 15 20 8 11 1024.0 1024.3 0.0
30/11:00am 15.1 11.8 9.5 69 2.9 N 17 22 9 12 1024.1 1024.4 0.0
30/10:30am 13.8 9.9 8.6 71 2.6 N 19 22 10 12 1024.5 1024.7 0.0
30/10:00am 13.0 9.2 9.1 77 2.0 NNE 19 24 10 13 1024.8 1025.0 0.0
30/09:30am 11.1 7.8 9.5 90 0.8 NNE 17 20 9 11 1024.9 1025.1 0.0
30/09:00am 8.2 6.1 8.1 99 0.0 NNE 9 13 5 7 1025.2 1025.4 0.0
30/08:30am 6.6 5.8 6.5 99 0.0 CALM 0 0 0 0 1025.3 1025.5 0.0
30/08:00am 5.2 4.1 5.1 99 0.0 CALM 0 0 0 0 1025.3 1025.5 0.0
30/07:30am 3.0 1.5 2.9 99 0.0 CALM 0 0 0 0 1025.2 1025.4 0.0
30/07:00am 1.9 0.2 1.8 99 0.0 CALM 0 4 0 2 1025.2 1025.4 0.0
30/06:30am 2.2 -0.6 2.1 99 0.0 NNE 6 6 3 3 1025.0 1025.2 0.0
30/06:00am 2.4 0.8 2.3 99 0.0 CALM 0 0 0 0 1024.9 1025.1 0.0
30/05:30am 2.5 0.9 2.4 99 0.0 CALM 0 0 0 0 1024.8 1025.0 0.0
30/05:00am 1.8 0.1 1.7 99 0.0 CALM 0 0 0 0 1024.7 1024.9 0.0
30/04:30am 2.6 1.0 2.5 99 0.0 CALM 0 0 0 0 1024.5 1024.7 0.0
30/04:00am 4.1 2.8 4.0 99 0.0 CALM 0 0 0 0 1024.6 1024.8 0.0
30/03:30am 4.1 2.8 4.0 99 0.0 CALM 0 0 0 0 1024.5 1024.7 0.0
30/03:00am 4.0 2.7 3.9 99 0.0 CALM 0 0 0 0 1024.8 1025.0 0.0
30/02:30am 5.3 4.2 5.2 99 0.0 CALM 0 0 0 0 1024.9 1025.1 0.0
30/02:00am 6.6 5.8 6.5 99 0.0 CALM 0 0 0 0 1025.2 1025.4 0.0
30/01:30am 6.9 6.1 6.5 97 0.2 CALM 0 0 0 0 1025.3 1025.5 0.0
30/01:00am 7.3 6.5 6.7 96 0.3 CALM 0 0 0 0 1025.4 1025.7 0.0
30/12:30am 7.7 5.9 7.0 95 0.3 SSE 6 7 3 4 1025.5 1025.8 0.0
30/12:00am 7.7 5.8 6.5 92 0.6 SSE 6 7 3 4 1025.8 1026.1 0.0
 
Date/Time
EST
Temp
°C
App
Temp
°C
Dew
Point
Rel
Hum
%
Delta-T
°C
Wind Press
QNH
hPa
Press
MSL
hPa
Rain
since 9 am
mm
Dir
 
Spd
km/h
Gust
km/h
Spd
kts
Gust
kts
29/11:30pm 8.3 7.5 6.3 87 0.9 CALM 0 0 0 0 1026.0 1026.3 0.0
29/11:00pm 8.9 6.8 6.0 82 1.3 S 6 9 3 5 1026.1 1026.4 0.0
29/10:30pm 10.7 8.4 7.4 80 1.6 S 9 11 5 6 1026.1 1026.4 0.0
29/10:00pm 11.0 9.1 7.5 79 1.7 S 7 9 4 5 1026.3 1026.6 0.0
29/09:30pm 10.4 7.9 6.5 77 1.8 S 9 11 5 6 1026.4 1026.7 0.0

Other Formats:

Comma delimited format used in spreadsheet applications
http://www.bom.gov.au/fwo/IDV60801/IDV60801.95827.axf

JavaScript Object Notation format (JSON) in row-major order
http://www.bom.gov.au/fwo/IDV60801/IDV60801.95827.json